Decoded Metar for LTFJ (SABIHA GOKCEN in TURKEY) (IATA:N/A) | Meteo·Mobile Aviation Weather
aviador You're here:

LTFJ Decoded Metar

SABIHA GOKCEN in TURKEY
Report Time2019-05-21 02:20:00
UTC Time2019-05-21 02:47:15
Flight Rules vfr VFR
WindCalm
Visibility9999 m
Phenomena:N/A
Clouds:N/A
Expected CloudBase > 2,800 ft AGL from Temp-Dew spread
CeilingNone
Temp20°C (ISA +6)
Dew Point13°C (64% RH)
QNH1013 hPa
Density Alt1,184 ft
Elevation322 ft
Report Wrong Elevation
Raw Report
LTFJ 210220Z 00000KT CAVOK 20/13 Q1013 NOSIG RMK RWY24 36002KT=

Extra information for LTFJ:More info

Metar Taf Metar & Taf Last 4 Metars F.Rules Stats Wind Profile Meteogram Temp Stats Airport Information Weather charts Add Link Nearby VenuesMetar ALERT Operation Metar Decoded Social comments